sensor_id;sensor_type;location;lat;lon;timestamp;P1;P2;P0
46591;PMS6003;32314;48.748;9.656;2022-09-16T00:00:45;11.00;11.00;9.75
46591;PMS6003;32314;48.748;9.656;2022-09-16T00:08:07;10.50;10.50;8.25
46591;PMS6003;32314;48.748;9.656;2022-09-16T00:18:39;7.50;7.50;6.75
46591;PMS6003;32314;48.748;9.656;2022-09-16T00:26:12;15.00;15.00;10.75
46591;PMS6003;32314;48.748;9.656;2022-09-16T00:29:13;17.75;17.00;12.00
46591;PMS6003;32314;48.748;9.656;2022-09-16T00:32:16;17.25;17.25;12.50
46591;PMS6003;32314;48.748;9.656;2022-09-16T00:35:15;14.50;14.25;10.75
46591;PMS6003;32314;48.748;9.656;2022-09-16T00:38:08;14.00;13.00;10.25
46591;PMS6003;32314;48.748;9.656;2022-09-16T00:40:53;13.50;12.25;9.75
46591;PMS6003;32314;48.748;9.656;2022-09-16T00:43:52;12.25;11.00;9.00
46591;PMS6003;32314;48.748;9.656;2022-09-16T00:47:05;14.00;11.00;9.00
46591;PMS6003;32314;48.748;9.656;2022-09-16T00:53:48;15.25;12.75;9.00
46591;PMS6003;32314;48.748;9.656;2022-09-16T00:57:12;11.25;9.25;7.00
46591;PMS6003;32314;48.748;9.656;2022-09-16T01:00:30;11.00;11.00;8.00
46591;PMS6003;32314;48.748;9.656;2022-09-16T01:07:37;11.00;10.50;8.00
46591;PMS6003;32314;48.748;9.656;2022-09-16T01:10:59;11.25;11.25;9.00
46591;PMS6003;32314;48.748;9.656;2022-09-16T01:13:51;13.75;13.75;10.50
46591;PMS6003;32314;48.748;9.656;2022-09-16T01:21:11;13.00;13.00;10.25
46591;PMS6003;32314;48.748;9.656;2022-09-16T01:27:34;10.00;10.00;7.00
46591;PMS6003;32314;48.748;9.656;2022-09-16T01:35:09;12.25;12.25;10.25
46591;PMS6003;32314;48.748;9.656;2022-09-16T01:44:56;10.50;10.50;7.00
46591;PMS6003;32314;48.748;9.656;2022-09-16T01:48:33;9.25;9.25;8.00
46591;PMS6003;32314;48.748;9.656;2022-09-16T01:55:07;15.50;14.50;11.50
46591;PMS6003;32314;48.748;9.656;2022-09-16T02:01:48;12.25;12.25;10.25
46591;PMS6003;32314;48.748;9.656;2022-09-16T02:24:30;18.50;18.50;14.00
46591;PMS6003;32314;48.748;9.656;2022-09-16T02:28:01;17.00;17.00;13.00
46591;PMS6003;32314;48.748;9.656;2022-09-16T02:31:01;11.50;11.50;8.25
46591;PMS6003;32314;48.748;9.656;2022-09-16T02:39:42;18.75;17.25;13.00
46591;PMS6003;32314;48.748;9.656;2022-09-16T02:42:53;12.75;11.50;7.50
46591;PMS6003;32314;48.748;9.656;2022-09-16T02:45:51;13.00;13.00;11.50
46591;PMS6003;32314;48.748;9.656;2022-09-16T02:49:24;12.25;12.25;10.25
46591;PMS6003;32314;48.748;9.656;2022-09-16T02:56:08;18.00;16.25;10.50
46591;PMS6003;32314;48.748;9.656;2022-09-16T02:59:38;16.00;16.00;12.00
46591;PMS6003;32314;48.748;9.656;2022-09-16T03:05:48;16.25;16.25;12.50
46591;PMS6003;32314;48.748;9.656;2022-09-16T03:09:16;14.25;14.25;10.25
46591;PMS6003;32314;48.748;9.656;2022-09-16T03:24:06;21.75;20.50;14.75
46591;PMS6003;32314;48.748;9.656;2022-09-16T03:31:19;14.75;14.75;12.50
46591;PMS6003;32314;48.748;9.656;2022-09-16T03:34:39;22.75;21.50;15.50
46591;PMS6003;32314;48.748;9.656;2022-09-16T03:37:38;20.00;18.25;12.50
46591;PMS6003;32314;48.748;9.656;2022-09-16T03:40:25;13.75;13.75;8.50
46591;PMS6003;32314;48.748;9.656;2022-09-16T03:43:21;12.75;12.75;7.50
46591;PMS6003;32314;48.748;9.656;2022-09-16T03:46:10;14.75;13.50;10.75
46591;PMS6003;32314;48.748;9.656;2022-09-16T03:49:36;14.25;14.25;9.50
46591;PMS6003;32314;48.748;9.656;2022-09-16T03:53:00;13.50;13.25;10.00
46591;PMS6003;32314;48.748;9.656;2022-09-16T03:55:49;14.50;14.50;12.75
46591;PMS6003;32314;48.748;9.656;2022-09-16T03:58:38;12.25;12.25;10.75
46591;PMS6003;32314;48.748;9.656;2022-09-16T04:01:24;14.50;13.25;10.25
46591;PMS6003;32314;48.748;9.656;2022-09-16T04:07:42;15.25;15.25;11.75
46591;PMS6003;32314;48.748;9.656;2022-09-16T04:10:31;23.75;22.25;16.00
46591;PMS6003;32314;48.748;9.656;2022-09-16T04:13:19;23.75;22.25;15.00
46591;PMS6003;32314;48.748;9.656;2022-09-16T04:16:05;16.50;16.50;12.50
46591;PMS6003;32314;48.748;9.656;2022-09-16T04:18:51;21.00;20.75;16.00
46591;PMS6003;32314;48.748;9.656;2022-09-16T04:21:40;21.75;21.75;15.75
46591;PMS6003;32314;48.748;9.656;2022-09-16T04:24:34;21.75;20.50;15.25
46591;PMS6003;32314;48.748;9.656;2022-09-16T04:27:38;21.25;21.25;14.50
46591;PMS6003;32314;48.748;9.656;2022-09-16T04:30:28;24.00;23.25;16.00
46591;PMS6003;32314;48.748;9.656;2022-09-16T04:33:14;23.25;23.00;16.00
46591;PMS6003;32314;48.748;9.656;2022-09-16T04:36:24;26.00;25.00;17.00
46591;PMS6003;32314;48.748;9.656;2022-09-16T04:39:23;20.50;20.50;14.50
46591;PMS6003;32314;48.748;9.656;2022-09-16T04:42:11;19.50;18.75;15.00
46591;PMS6003;32314;48.748;9.656;2022-09-16T04:45:11;27.25;25.25;16.75
46591;PMS6003;32314;48.748;9.656;2022-09-16T04:48:02;22.00;19.00;13.00
46591;PMS6003;32314;48.748;9.656;2022-09-16T04:50:54;18.25;18.25;12.50
46591;PMS6003;32314;48.748;9.656;2022-09-16T04:53:54;16.25;14.75;12.25
46591;PMS6003;32314;48.748;9.656;2022-09-16T04:56:41;17.75;17.75;13.50
46591;PMS6003;32314;48.748;9.656;2022-09-16T04:59:33;17.00;15.00;13.00
46591;PMS6003;32314;48.748;9.656;2022-09-16T05:02:26;14.75;14.75;12.50
46591;PMS6003;32314;48.748;9.656;2022-09-16T05:11:59;16.50;16.50;12.25
46591;PMS6003;32314;48.748;9.656;2022-09-16T05:14:47;17.50;17.50;13.50
46591;PMS6003;32314;48.748;9.656;2022-09-16T05:17:49;22.25;22.25;16.00
46591;PMS6003;32314;48.748;9.656;2022-09-16T05:20:54;16.25;15.25;11.25
46591;PMS6003;32314;48.748;9.656;2022-09-16T05:23:44;20.25;18.50;13.50
46591;PMS6003;32314;48.748;9.656;2022-09-16T05:26:33;18.00;16.25;12.75
46591;PMS6003;32314;48.748;9.656;2022-09-16T05:29:22;17.50;17.50;14.50
46591;PMS6003;32314;48.748;9.656;2022-09-16T05:32:08;15.75;15.75;12.50
46591;PMS6003;32314;48.748;9.656;2022-09-16T05:34:57;14.50;13.75;11.00
46591;PMS6003;32314;48.748;9.656;2022-09-16T05:37:43;21.50;18.75;12.00
46591;PMS6003;32314;48.748;9.656;2022-09-16T05:40:33;20.00;20.00;13.00
46591;PMS6003;32314;48.748;9.656;2022-09-16T05:43:21;15.50;15.50;12.00
46591;PMS6003;32314;48.748;9.656;2022-09-16T05:46:12;19.75;15.50;11.50
46591;PMS6003;32314;48.748;9.656;2022-09-16T05:49:11;15.25;15.25;12.00
46591;PMS6003;32314;48.748;9.656;2022-09-16T05:52:04;18.00;16.00;14.00
46591;PMS6003;32314;48.748;9.656;2022-09-16T05:54:53;16.25;15.50;11.75
46591;PMS6003;32314;48.748;9.656;2022-09-16T05:57:46;17.00;17.00;13.75
46591;PMS6003;32314;48.748;9.656;2022-09-16T06:00:35;18.00;17.25;14.00
46591;PMS6003;32314;48.748;9.656;2022-09-16T06:03:26;19.00;19.00;14.50
46591;PMS6003;32314;48.748;9.656;2022-09-16T06:09:35;16.25;14.75;12.25
46591;PMS6003;32314;48.748;9.656;2022-09-16T06:16:04;19.50;19.50;14.75
46591;PMS6003;32314;48.748;9.656;2022-09-16T06:18:51;17.50;17.50;14.00
46591;PMS6003;32314;48.748;9.656;2022-09-16T06:21:37;19.75;19.75;14.25
46591;PMS6003;32314;48.748;9.656;2022-09-16T06:24:24;22.00;18.00;13.25
46591;PMS6003;32314;48.748;9.656;2022-09-16T06:27:09;15.50;15.50;12.50
46591;PMS6003;32314;48.748;9.656;2022-09-16T06:29:55;19.50;17.00;13.50
46591;PMS6003;32314;48.748;9.656;2022-09-16T06:32:41;18.25;15.00;13.25
46591;PMS6003;32314;48.748;9.656;2022-09-16T06:35:28;15.00;15.00;12.00
46591;PMS6003;32314;48.748;9.656;2022-09-16T06:38:14;14.00;14.00;11.50
46591;PMS6003;32314;48.748;9.656;2022-09-16T06:41:01;14.75;14.50;10.25
46591;PMS6003;32314;48.748;9.656;2022-09-16T06:43:48;14.75;13.00;9.75
46591;PMS6003;32314;48.748;9.656;2022-09-16T06:46:37;11.75;11.75;9.00
46591;PMS6003;32314;48.748;9.656;2022-09-16T06:49:23;13.50;13.50;10.25
46591;PMS6003;32314;48.748;9.656;2022-09-16T06:52:09;11.50;11.50;8.00
46591;PMS6003;32314;48.748;9.656;2022-09-16T06:54:56;9.75;7.75;6.75
46591;PMS6003;32314;48.748;9.656;2022-09-16T06:57:42;8.25;8.25;7.00
46591;PMS6003;32314;48.748;9.656;2022-09-16T07:00:28;12.00;10.75;7.25
46591;PMS6003;32314;48.748;9.656;2022-09-16T07:03:14;10.00;10.00;6.75
46591;PMS6003;32314;48.748;9.656;2022-09-16T07:06:00;6.75;6.00;5.50
46591;PMS6003;32314;48.748;9.656;2022-09-16T07:08:47;7.75;7.50;6.50
46591;PMS6003;32314;48.748;9.656;2022-09-16T07:11:33;7.25;7.25;5.50
46591;PMS6003;32314;48.748;9.656;2022-09-16T07:14:19;7.50;6.00;5.00
46591;PMS6003;32314;48.748;9.656;2022-09-16T07:17:06;7.00;7.00;5.75
46591;PMS6003;32314;48.748;9.656;2022-09-16T07:19:53;7.50;6.25;5.00
46591;PMS6003;32314;48.748;9.656;2022-09-16T07:22:39;6.00;6.00;4.75
46591;PMS6003;32314;48.748;9.656;2022-09-16T07:25:25;6.75;6.50;5.00
46591;PMS6003;32314;48.748;9.656;2022-09-16T07:28:12;6.75;6.75;6.00
46591;PMS6003;32314;48.748;9.656;2022-09-16T07:31:06;10.00;8.00;6.50
46591;PMS6003;32314;48.748;9.656;2022-09-16T07:33:54;6.25;6.25;5.00
46591;PMS6003;32314;48.748;9.656;2022-09-16T07:36:42;6.50;5.00;4.00
46591;PMS6003;32314;48.748;9.656;2022-09-16T07:39:29;5.75;5.00;4.75
46591;PMS6003;32314;48.748;9.656;2022-09-16T07:42:15;6.00;6.00;4.75
46591;PMS6003;32314;48.748;9.656;2022-09-16T07:45:02;5.50;5.00;4.00
46591;PMS6003;32314;48.748;9.656;2022-09-16T07:47:48;10.25;3.75;3.25
46591;PMS6003;32314;48.748;9.656;2022-09-16T07:50:34;4.25;4.25;4.00
46591;PMS6003;32314;48.748;9.656;2022-09-16T07:53:20;4.25;4.25;3.75
46591;PMS6003;32314;48.748;9.656;2022-09-16T07:56:08;5.00;5.00;4.00
46591;PMS6003;32314;48.748;9.656;2022-09-16T07:58:55;5.00;5.00;4.00
46591;PMS6003;32314;48.748;9.656;2022-09-16T08:01:41;3.00;3.00;2.25
46591;PMS6003;32314;48.748;9.656;2022-09-16T08:04:27;5.25;5.25;5.00
46591;PMS6003;32314;48.748;9.656;2022-09-16T08:07:13;5.75;5.75;4.50
46591;PMS6003;32314;48.748;9.656;2022-09-16T08:09:59;10.00;8.25;7.50
46591;PMS6003;32314;48.748;9.656;2022-09-16T08:12:48;15.25;15.25;13.00
46591;PMS6003;32314;48.748;9.656;2022-09-16T08:15:33;15.25;14.25;11.25
46591;PMS6003;32314;48.748;9.656;2022-09-16T08:18:19;9.75;9.75;7.25
46591;PMS6003;32314;48.748;9.656;2022-09-16T08:21:09;7.50;7.50;5.00
46591;PMS6003;32314;48.748;9.656;2022-09-16T08:24:00;4.00;4.00;3.25
46591;PMS6003;32314;48.748;9.656;2022-09-16T08:26:46;6.00;6.00;4.25
46591;PMS6003;32314;48.748;9.656;2022-09-16T08:29:32;8.00;5.00;4.25
46591;PMS6003;32314;48.748;9.656;2022-09-16T08:32:18;6.00;5.25;4.00
46591;PMS6003;32314;48.748;9.656;2022-09-16T08:35:04;5.00;5.00;5.00
46591;PMS6003;32314;48.748;9.656;2022-09-16T08:37:53;6.75;6.75;5.75
46591;PMS6003;32314;48.748;9.656;2022-09-16T08:40:48;5.75;5.75;4.50
46591;PMS6003;32314;48.748;9.656;2022-09-16T08:44:01;6.00;6.00;5.00
46591;PMS6003;32314;48.748;9.656;2022-09-16T08:50:20;10.25;7.00;6.00
46591;PMS6003;32314;48.748;9.656;2022-09-16T09:00:18;3.75;3.75;3.25
46591;PMS6003;32314;48.748;9.656;2022-09-16T09:13:30;6.75;6.75;6.00
46591;PMS6003;32314;48.748;9.656;2022-09-16T09:20:15;6.50;5.00;4.00
46591;PMS6003;32314;48.748;9.656;2022-09-16T09:26:47;5.50;5.50;4.00
46591;PMS6003;32314;48.748;9.656;2022-09-16T09:30:24;6.00;6.00;5.00
46591;PMS6003;32314;48.748;9.656;2022-09-16T09:36:30;5.00;5.00;4.75
46591;PMS6003;32314;48.748;9.656;2022-09-16T09:45:57;11.25;9.50;7.50
46591;PMS6003;32314;48.748;9.656;2022-09-16T09:49:25;6.00;6.00;5.00
46591;PMS6003;32314;48.748;9.656;2022-09-16T09:52:35;6.00;6.00;5.00
46591;PMS6003;32314;48.748;9.656;2022-09-16T09:55:31;5.50;5.50;4.50
46591;PMS6003;32314;48.748;9.656;2022-09-16T10:01:13;9.00;6.75;5.50
46591;PMS6003;32314;48.748;9.656;2022-09-16T10:04:30;8.75;7.50;6.00
46591;PMS6003;32314;48.748;9.656;2022-09-16T10:07:27;6.00;6.00;5.50
46591;PMS6003;32314;48.748;9.656;2022-09-16T10:10:20;7.25;7.25;6.50
46591;PMS6003;32314;48.748;9.656;2022-09-16T10:13:18;6.50;6.50;5.75
46591;PMS6003;32314;48.748;9.656;2022-09-16T10:16:28;6.00;6.00;5.25
46591;PMS6003;32314;48.748;9.656;2022-09-16T10:19:49;7.00;7.00;5.50
46591;PMS6003;32314;48.748;9.656;2022-09-16T10:29:16;7.00;6.00;5.00
46591;PMS6003;32314;48.748;9.656;2022-09-16T10:32:14;7.75;7.75;6.75
46591;PMS6003;32314;48.748;9.656;2022-09-16T10:35:25;12.00;8.00;7.00
46591;PMS6003;32314;48.748;9.656;2022-09-16T10:38:16;6.00;6.00;5.00
46591;PMS6003;32314;48.748;9.656;2022-09-16T10:41:08;7.75;6.25;5.00
46591;PMS6003;32314;48.748;9.656;2022-09-16T10:44:03;8.75;8.75;8.00
46591;PMS6003;32314;48.748;9.656;2022-09-16T10:47:01;9.50;9.50;7.50
46591;PMS6003;32314;48.748;9.656;2022-09-16T10:49:54;10.00;8.25;7.75
46591;PMS6003;32314;48.748;9.656;2022-09-16T10:52:44;11.50;9.00;8.00
46591;PMS6003;32314;48.748;9.656;2022-09-16T10:55:31;9.00;9.00;7.00
46591;PMS6003;32314;48.748;9.656;2022-09-16T10:58:22;8.75;8.75;8.00
46591;PMS6003;32314;48.748;9.656;2022-09-16T11:04:22;8.50;8.50;7.50
46591;PMS6003;32314;48.748;9.656;2022-09-16T11:22:29;7.00;7.00;5.75
46591;PMS6003;32314;48.748;9.656;2022-09-16T11:25:43;6.00;6.00;6.00
46591;PMS6003;32314;48.748;9.656;2022-09-16T11:32:06;9.75;9.75;7.50
46591;PMS6003;32314;48.748;9.656;2022-09-16T11:35:06;7.50;7.50;6.75
46591;PMS6003;32314;48.748;9.656;2022-09-16T11:38:09;7.50;6.50;6.00
46591;PMS6003;32314;48.748;9.656;2022-09-16T11:57:03;6.50;6.50;6.00
46591;PMS6003;32314;48.748;9.656;2022-09-16T11:59:42;8.25;8.25;7.00
46591;PMS6003;32314;48.748;9.656;2022-09-16T12:02:44;7.75;7.75;6.00
46591;PMS6003;32314;48.748;9.656;2022-09-16T12:05:41;5.00;5.00;5.00
46591;PMS6003;32314;48.748;9.656;2022-09-16T12:11:36;12.25;8.25;7.00
46591;PMS6003;32314;48.748;9.656;2022-09-16T12:14:32;9.75;8.00;7.00
46591;PMS6003;32314;48.748;9.656;2022-09-16T12:17:23;6.75;6.50;5.25
46591;PMS6003;32314;48.748;9.656;2022-09-16T12:20:26;7.25;6.75;5.25
46591;PMS6003;32314;48.748;9.656;2022-09-16T12:23:19;6.50;6.50;5.00
46591;PMS6003;32314;48.748;9.656;2022-09-16T12:26:12;7.50;7.50;6.50
46591;PMS6003;32314;48.748;9.656;2022-09-16T12:29:05;4.75;4.75;3.75
46591;PMS6003;32314;48.748;9.656;2022-09-16T12:31:54;8.25;7.25;5.75
46591;PMS6003;32314;48.748;9.656;2022-09-16T12:34:49;7.00;7.00;6.00
46591;PMS6003;32314;48.748;9.656;2022-09-16T12:37:49;8.25;6.25;6.00
46591;PMS6003;32314;48.748;9.656;2022-09-16T12:56:22;4.75;4.75;4.25
46591;PMS6003;32314;48.748;9.656;2022-09-16T13:02:57;4.50;4.50;4.00
46591;PMS6003;32314;48.748;9.656;2022-09-16T13:05:49;4.75;4.75;4.00
46591;PMS6003;32314;48.748;9.656;2022-09-16T13:08:36;3.00;3.00;2.50
46591;PMS6003;32314;48.748;9.656;2022-09-16T13:11:23;4.00;4.00;3.00
46591;PMS6003;32314;48.748;9.656;2022-09-16T13:14:20;3.25;3.25;3.00
46591;PMS6003;32314;48.748;9.656;2022-09-16T13:17:11;4.00;4.00;3.25
46591;PMS6003;32314;48.748;9.656;2022-09-16T13:20:19;5.25;4.00;3.00
46591;PMS6003;32314;48.748;9.656;2022-09-16T13:23:16;4.50;3.00;3.00
46591;PMS6003;32314;48.748;9.656;2022-09-16T13:26:08;3.75;3.75;2.75
46591;PMS6003;32314;48.748;9.656;2022-09-16T13:28:54;3.25;3.25;2.75
46591;PMS6003;32314;48.748;9.656;2022-09-16T13:31:46;3.00;3.00;3.00
46591;PMS6003;32314;48.748;9.656;2022-09-16T13:34:32;3.00;3.00;3.00
46591;PMS6003;32314;48.748;9.656;2022-09-16T13:37:24;4.75;4.75;3.75
46591;PMS6003;32314;48.748;9.656;2022-09-16T13:43:13;3.00;3.00;3.00
46591;PMS6003;32314;48.748;9.656;2022-09-16T13:46:00;3.25;3.25;3.00
46591;PMS6003;32314;48.748;9.656;2022-09-16T13:49:30;3.00;3.00;2.50
46591;PMS6003;32314;48.748;9.656;2022-09-16T13:52:07;3.50;3.50;3.00
46591;PMS6003;32314;48.748;9.656;2022-09-16T13:54:57;3.00;3.00;3.00
46591;PMS6003;32314;48.748;9.656;2022-09-16T14:01:03;5.00;5.00;4.00
46591;PMS6003;32314;48.748;9.656;2022-09-16T14:04:09;3.50;3.50;3.00
46591;PMS6003;32314;48.748;9.656;2022-09-16T14:13:55;1.00;1.00;1.00
46591;PMS6003;32314;48.748;9.656;2022-09-16T14:16:50;3.25;3.25;3.00
46591;PMS6003;32314;48.748;9.656;2022-09-16T14:19:37;2.50;2.50;2.00
46591;PMS6003;32314;48.748;9.656;2022-09-16T14:22:24;4.50;4.00;3.75
46591;PMS6003;32314;48.748;9.656;2022-09-16T14:28:24;0.50;0.50;0.50
46591;PMS6003;32314;48.748;9.656;2022-09-16T14:31:13;2.75;1.75;1.00
46591;PMS6003;32314;48.748;9.656;2022-09-16T14:34:02;1.25;1.25;1.25
46591;PMS6003;32314;48.748;9.656;2022-09-16T14:36:52;3.25;3.25;3.00
46591;PMS6003;32314;48.748;9.656;2022-09-16T14:39:47;2.00;2.00;2.00
46591;PMS6003;32314;48.748;9.656;2022-09-16T14:42:37;1.00;1.00;1.00
46591;PMS6003;32314;48.748;9.656;2022-09-16T14:45:28;4.75;3.00;3.00
46591;PMS6003;32314;48.748;9.656;2022-09-16T14:48:21;2.00;2.00;2.00
46591;PMS6003;32314;48.748;9.656;2022-09-16T14:51:20;2.50;2.50;2.00
46591;PMS6003;32314;48.748;9.656;2022-09-16T14:54:15;3.75;3.00;2.25
46591;PMS6003;32314;48.748;9.656;2022-09-16T14:57:12;3.00;3.00;3.00
46591;PMS6003;32314;48.748;9.656;2022-09-16T15:00:05;3.00;3.00;3.00
46591;PMS6003;32314;48.748;9.656;2022-09-16T15:03:08;2.50;2.50;2.25
46591;PMS6003;32314;48.748;9.656;2022-09-16T15:06:03;3.00;3.00;3.00
46591;PMS6003;32314;48.748;9.656;2022-09-16T15:09:02;3.75;3.50;3.00
46591;PMS6003;32314;48.748;9.656;2022-09-16T15:12:05;3.00;3.00;3.00
46591;PMS6003;32314;48.748;9.656;2022-09-16T15:18:59;3.00;3.00;3.00
46591;PMS6003;32314;48.748;9.656;2022-09-16T15:22:00;2.50;2.50;2.00
46591;PMS6003;32314;48.748;9.656;2022-09-16T15:24:57;4.00;2.00;2.00
46591;PMS6003;32314;48.748;9.656;2022-09-16T15:27:45;3.25;3.25;3.00
46591;PMS6003;32314;48.748;9.656;2022-09-16T15:30:57;3.25;3.25;2.50
46591;PMS6003;32314;48.748;9.656;2022-09-16T15:33:43;2.25;2.25;2.00
46591;PMS6003;32314;48.748;9.656;2022-09-16T15:36:38;2.50;2.50;2.00
46591;PMS6003;32314;48.748;9.656;2022-09-16T15:39:29;4.00;4.00;3.00
46591;PMS6003;32314;48.748;9.656;2022-09-16T15:42:19;3.00;3.00;3.00
46591;PMS6003;32314;48.748;9.656;2022-09-16T15:45:13;3.25;2.25;2.00
46591;PMS6003;32314;48.748;9.656;2022-09-16T15:48:06;3.75;3.75;3.00
46591;PMS6003;32314;48.748;9.656;2022-09-16T15:51:09;4.25;4.00;4.00
46591;PMS6003;32314;48.748;9.656;2022-09-16T15:57:15;5.00;3.00;3.00
46591;PMS6003;32314;48.748;9.656;2022-09-16T16:00:10;6.50;4.00;3.00
46591;PMS6003;32314;48.748;9.656;2022-09-16T16:03:00;4.00;4.00;3.00
46591;PMS6003;32314;48.748;9.656;2022-09-16T16:05:50;5.75;4.00;3.25
46591;PMS6003;32314;48.748;9.656;2022-09-16T16:08:41;3.00;3.00;2.00
46591;PMS6003;32314;48.748;9.656;2022-09-16T16:11:31;2.50;2.50;2.50
46591;PMS6003;32314;48.748;9.656;2022-09-16T16:14:17;3.75;3.75;3.00
46591;PMS6003;32314;48.748;9.656;2022-09-16T16:19:50;4.50;4.25;4.00
46591;PMS6003;32314;48.748;9.656;2022-09-16T16:22:36;4.50;4.50;4.00
46591;PMS6003;32314;48.748;9.656;2022-09-16T16:25:22;4.75;4.75;4.00
46591;PMS6003;32314;48.748;9.656;2022-09-16T16:28:08;3.75;3.75;3.75
46591;PMS6003;32314;48.748;9.656;2022-09-16T16:31:05;5.00;5.00;4.25
46591;PMS6003;32314;48.748;9.656;2022-09-16T16:34:01;5.00;5.00;4.25
46591;PMS6003;32314;48.748;9.656;2022-09-16T16:36:47;5.00;5.00;5.00
46591;PMS6003;32314;48.748;9.656;2022-09-16T16:39:33;5.00;5.00;4.00
46591;PMS6003;32314;48.748;9.656;2022-09-16T16:42:19;5.00;5.00;4.25
46591;PMS6003;32314;48.748;9.656;2022-09-16T16:45:06;6.00;5.75;4.75
46591;PMS6003;32314;48.748;9.656;2022-09-16T16:47:52;6.00;5.00;4.00
46591;PMS6003;32314;48.748;9.656;2022-09-16T16:50:38;5.00;5.00;4.00
46591;PMS6003;32314;48.748;9.656;2022-09-16T16:53:24;3.75;3.75;3.00
46591;PMS6003;32314;48.748;9.656;2022-09-16T16:56:11;4.50;4.50;3.75
46591;PMS6003;32314;48.748;9.656;2022-09-16T16:58:57;5.00;5.00;4.00
46591;PMS6003;32314;48.748;9.656;2022-09-16T17:01:43;4.25;4.25;4.00
46591;PMS6003;32314;48.748;9.656;2022-09-16T17:04:30;2.75;2.75;2.50
46591;PMS6003;32314;48.748;9.656;2022-09-16T17:07:16;4.00;4.00;3.25
46591;PMS6003;32314;48.748;9.656;2022-09-16T17:10:02;4.00;3.50;3.50
46591;PMS6003;32314;48.748;9.656;2022-09-16T17:12:48;6.00;6.00;4.00
46591;PMS6003;32314;48.748;9.656;2022-09-16T17:15:33;6.00;6.00;5.25
46591;PMS6003;32314;48.748;9.656;2022-09-16T17:18:19;6.75;5.00;5.00
46591;PMS6003;32314;48.748;9.656;2022-09-16T17:21:06;4.50;4.50;3.75
46591;PMS6003;32314;48.748;9.656;2022-09-16T17:23:54;6.00;6.00;4.25
46591;PMS6003;32314;48.748;9.656;2022-09-16T17:26:40;4.25;3.00;3.00
46591;PMS6003;32314;48.748;9.656;2022-09-16T17:29:26;4.50;4.50;4.00
46591;PMS6003;32314;48.748;9.656;2022-09-16T17:32:11;6.25;4.00;3.75
46591;PMS6003;32314;48.748;9.656;2022-09-16T17:34:57;4.00;4.00;3.25
46591;PMS6003;32314;48.748;9.656;2022-09-16T17:37:43;4.25;2.75;2.75
46591;PMS6003;32314;48.748;9.656;2022-09-16T17:40:29;3.50;3.50;3.00
46591;PMS6003;32314;48.748;9.656;2022-09-16T17:43:15;3.50;3.50;3.25
46591;PMS6003;32314;48.748;9.656;2022-09-16T17:46:02;2.00;2.00;2.00
46591;PMS6003;32314;48.748;9.656;2022-09-16T17:48:49;2.50;2.50;2.00
46591;PMS6003;32314;48.748;9.656;2022-09-16T17:51:35;2.00;2.00;1.25
46591;PMS6003;32314;48.748;9.656;2022-09-16T17:54:21;1.50;1.50;1.50
46591;PMS6003;32314;48.748;9.656;2022-09-16T17:57:07;1.50;1.50;1.50
46591;PMS6003;32314;48.748;9.656;2022-09-16T17:59:53;2.00;2.00;1.50
46591;PMS6003;32314;48.748;9.656;2022-09-16T18:02:39;2.00;2.00;1.75
46591;PMS6003;32314;48.748;9.656;2022-09-16T18:05:24;2.00;2.00;1.00
46591;PMS6003;32314;48.748;9.656;2022-09-16T18:08:10;3.25;2.00;2.00
46591;PMS6003;32314;48.748;9.656;2022-09-16T18:10:56;3.00;3.00;3.00
46591;PMS6003;32314;48.748;9.656;2022-09-16T18:13:42;0.75;0.75;0.75
46591;PMS6003;32314;48.748;9.656;2022-09-16T18:16:30;2.00;2.00;2.00
46591;PMS6003;32314;48.748;9.656;2022-09-16T18:19:16;1.25;1.25;1.00
46591;PMS6003;32314;48.748;9.656;2022-09-16T18:22:02;1.00;1.00;1.00
46591;PMS6003;32314;48.748;9.656;2022-09-16T18:24:48;1.50;1.50;1.25
46591;PMS6003;32314;48.748;9.656;2022-09-16T18:27:34;1.75;1.75;1.50
46591;PMS6003;32314;48.748;9.656;2022-09-16T18:30:20;1.50;1.25;1.25
46591;PMS6003;32314;48.748;9.656;2022-09-16T18:33:06;1.00;1.00;1.00
46591;PMS6003;32314;48.748;9.656;2022-09-16T18:36:00;0.75;0.75;0.75
46591;PMS6003;32314;48.748;9.656;2022-09-16T18:38:51;1.00;1.00;1.00
46591;PMS6003;32314;48.748;9.656;2022-09-16T18:41:38;0.50;0.50;0.00
46591;PMS6003;32314;48.748;9.656;2022-09-16T18:44:25;0.00;0.00;0.00
46591;PMS6003;32314;48.748;9.656;2022-09-16T18:47:11;0.00;0.00;0.00
46591;PMS6003;32314;48.748;9.656;2022-09-16T18:49:57;0.00;0.00;0.00
46591;PMS6003;32314;48.748;9.656;2022-09-16T18:52:45;1.00;1.00;0.00
46591;PMS6003;32314;48.748;9.656;2022-09-16T18:55:31;1.00;1.00;1.00
46591;PMS6003;32314;48.748;9.656;2022-09-16T18:58:17;2.00;2.00;2.00
46591;PMS6003;32314;48.748;9.656;2022-09-16T19:01:22;1.50;1.50;1.00
46591;PMS6003;32314;48.748;9.656;2022-09-16T19:04:13;2.25;2.25;2.25
46591;PMS6003;32314;48.748;9.656;2022-09-16T19:07:06;2.75;2.75;2.00
46591;PMS6003;32314;48.748;9.656;2022-09-16T19:09:53;3.75;3.00;3.00
46591;PMS6003;32314;48.748;9.656;2022-09-16T19:12:39;7.50;7.50;6.25
46591;PMS6003;32314;48.748;9.656;2022-09-16T19:15:25;1.25;1.25;1.00
46591;PMS6003;32314;48.748;9.656;2022-09-16T19:18:11;0.00;0.00;0.00
46591;PMS6003;32314;48.748;9.656;2022-09-16T19:20:57;1.75;1.75;1.50
46591;PMS6003;32314;48.748;9.656;2022-09-16T19:23:44;2.00;2.00;2.00
46591;PMS6003;32314;48.748;9.656;2022-09-16T19:26:33;1.50;1.50;1.50
46591;PMS6003;32314;48.748;9.656;2022-09-16T19:29:20;2.00;2.00;2.00
46591;PMS6003;32314;48.748;9.656;2022-09-16T19:32:06;2.25;2.25;2.25
46591;PMS6003;32314;48.748;9.656;2022-09-16T19:34:52;3.00;1.50;1.25
46591;PMS6003;32314;48.748;9.656;2022-09-16T19:37:37;2.00;2.00;2.00
46591;PMS6003;32314;48.748;9.656;2022-09-16T19:40:23;2.00;1.00;0.00
46591;PMS6003;32314;48.748;9.656;2022-09-16T19:43:09;2.00;2.00;2.00
46591;PMS6003;32314;48.748;9.656;2022-09-16T19:46:01;0.00;0.00;0.00
46591;PMS6003;32314;48.748;9.656;2022-09-16T19:48:55;3.00;1.75;1.00
46591;PMS6003;32314;48.748;9.656;2022-09-16T19:51:41;2.00;2.00;2.00
46591;PMS6003;32314;48.748;9.656;2022-09-16T19:54:29;1.25;1.25;1.25
46591;PMS6003;32314;48.748;9.656;2022-09-16T19:57:15;0.00;0.00;0.00
46591;PMS6003;32314;48.748;9.656;2022-09-16T20:00:02;2.00;2.00;1.75
46591;PMS6003;32314;48.748;9.656;2022-09-16T20:02:57;0.25;0.25;0.00
46591;PMS6003;32314;48.748;9.656;2022-09-16T20:05:43;0.00;0.00;0.00
46591;PMS6003;32314;48.748;9.656;2022-09-16T20:08:29;1.00;1.00;1.00
46591;PMS6003;32314;48.748;9.656;2022-09-16T20:11:19;1.00;1.00;0.75
46591;PMS6003;32314;48.748;9.656;2022-09-16T20:14:16;0.75;0.00;0.00
46591;PMS6003;32314;48.748;9.656;2022-09-16T20:17:03;1.00;1.00;0.00
46591;PMS6003;32314;48.748;9.656;2022-09-16T20:19:49;0.00;0.00;0.00
46591;PMS6003;32314;48.748;9.656;2022-09-16T20:22:35;2.00;2.00;1.00
46591;PMS6003;32314;48.748;9.656;2022-09-16T20:25:21;0.00;0.00;0.00
46591;PMS6003;32314;48.748;9.656;2022-09-16T20:28:07;0.00;0.00;0.00
46591;PMS6003;32314;48.748;9.656;2022-09-16T20:30:53;0.00;0.00;0.00
46591;PMS6003;32314;48.748;9.656;2022-09-16T20:33:39;0.25;0.25;0.25
46591;PMS6003;32314;48.748;9.656;2022-09-16T20:36:26;0.00;0.00;0.00
46591;PMS6003;32314;48.748;9.656;2022-09-16T20:39:18;1.00;1.00;0.75
46591;PMS6003;32314;48.748;9.656;2022-09-16T20:42:23;2.00;1.00;1.00
46591;PMS6003;32314;48.748;9.656;2022-09-16T20:45:27;0.00;0.00;0.00
46591;PMS6003;32314;48.748;9.656;2022-09-16T20:51:37;0.00;0.00;0.00